Skip to content.

Wairarapa Tararua

  

Crofoot - CRF

Logged in to unit HSN11772 as: Guest
(Last data received Sat 24 Feb 2018 01:20:00 - 2 minutes ago)

Weather FWI Graphs Forecast Hourly FWI Daily FWI Download FWI Data

Hourly FWI Logs | Period From 08:52 12/02/2018 to 08:52 13/02/2018

Change the DoC% for the 24hr period starting 12:00pm 12/2/2018 to

If the date above is the current day, then all future logs will inherit this value until such time as it is changed again. If you wish to change historic values you can do so by going back to the day you want to alter (navigate via the graphs) and change the DoC% there (however this will only affect that day).

WindRainHourly FWIsDaily FWIsForestGrassScrub
DateTime (NZST)Temp (C)RH (%)Dir (deg)Speed (km/h)Hourly (mm)Daily (mm)FFMCISIHFWIFFMCDMCDCISIBUIFWIDSRROS (m/h)FFI (kW/m)FFDCDoC (%)ROS (m/h)GFI (kW/m)GFDCROS (m/h)SFI (kW/m)SFDC
13/02/2018 0700 22.5 78.3 1 51.7 0.0 82.1 17.2 15.3 338 55 M 75 1950 3412 V 3662 36622 E
13/02/2018 0600 22.3 78.6 352 58.8 0.0 82.0 17.1 15.1 335 55 M 75 1926 3370 V 3642 36416 E
13/02/2018 0500 22.8 76.1 353 54.6 0.0 81.9 16.9 15.0 333 54 M 75 1903 3330 V 3622 36217 E
13/02/2018 0400 22.5 77.3 354 56.7 0.0 81.7 16.4 14.7 325 53 M 75 1837 3215 V 3563 35632 E
13/02/2018 0300 22.6 76.4 341 53.8 0.0 81.4 16.0 14.4 318 52 M 75 1780 3115 V 3510 35099 E
13/02/2018 0200 22.3 79.1 350 54.2 0.0 81.1 15.5 14.0 309 50 M 75 1702 2979 V 3435 34352 E
13/02/2018 0100 22.6 75.2 346 62.5 0.0 80.9 15.1 13.8 303 49 M 75 1652 2891 V 3384 33844 E
13/02/2018 0000 22.4 78.9 337 58.0 0.0 80.4 14.3 13.2 289 47 M 75 1539 2693 V 3265 32650 E
12/02/2018 2300 22.7 77.6 344 46.8 0.0 80.1 13.8 12.8 278 45 M 75 1462 2559 V 3179 31795 E
12/02/2018 2200 22.7 78.1 350 40.6 0.0 79.6 13.1 12.3 266 43 M 75 1370 2398 V 3071 30709 E
12/02/2018 2100 23.3 75.0 354 32.3 0.0 79.1 5.3 5.6 91 15 M 75 365 640 H 1296 12960 E
12/02/2018 2000 23.5 75.8 345 36.8 0.0 78.4 6.2 6.5 113 18 M 75 469 822 H 1553 15534 E
12/02/2018 1900 24.7 70.3 348 38.5 0.0 77.5 6.3 6.6 115 19 M 75 478 837 H 1574 15743 E
12/02/2018 1800 25.9 65.8 354 49.3 0.0 76.1 9.8 9.7 197 32 M 75 919 1607 H 2433 24328 E
12/02/2018 1700 26.9 64.6 337 34.8 0.0 73.8 4.2 4.3 65 11 M 75 250 438 M 975 9755 E
12/02/2018 1600 27.6 62.9 340 28.6 0.2 71.1 2.7 2.6 35 6 L 75 128 224 M 576 5758 E
12/02/2018 1500 28.3 60.9 352 41.0 0.0 71.7 7.9 8.1 153 25 M 75 675 1181 H 1994 19944 E
12/02/2018 1400 28.2 61.4 336 48.0 0.0 67.9 7.0 7.3 131 21 M 75 561 982 H 1760 17598 E
12/02/2018 1300 28.2 62.8 348 38.5 0.0 63.1 3.4 3.4 48 8 L 75 179 314 M 753 7531 E
12/02/2018 1200 27.7 63.1 355 41.4 0.0 12.4 57.9 4.2 4.4 71.0 5.0 222.9 7.8 9.5 8.0 1.1 67 11 M 75 259 453 M 1001 10010 E
12/02/2018 1100 26.3 68.9 359 58.0 0.0 51.9 2.4 2.8 40 13 M 75 107 187 M 497 4971 E
12/02/2018 1000 25.3 71.7 1 67.9 0.0 45.2 1.0 0.7 10 3 L 75 25 44 M 149 1489 H
12/02/2018 0900 24.7 75.6 359 56.3 0.0 38.0 0.3 0.2 1 0 L 75 3 5 L 23 228 M
12/02/2018 0800 24.1 77.3 0 61.3 0.0 31.4 0.1 0.0 0 0 L 75 0 0 L 2 23 M